createdAt,value
2023-11-24T00:00:05.615Z,34.83
2023-11-24T00:02:41.422Z,32.90
2023-11-24T00:05:09.627Z,47.75
2023-11-24T00:07:41.695Z,35.35
2023-11-24T00:10:10.745Z,33.80
2023-11-24T00:12:38.247Z,32.95
2023-11-24T00:15:07.410Z,35.47
2023-11-24T00:17:37.865Z,36.33
2023-11-24T00:20:09.436Z,34.53
2023-11-24T00:22:36.683Z,34.40
2023-11-24T00:25:05.256Z,31.67
2023-11-24T00:27:34.731Z,31.60
2023-11-24T00:30:03.034Z,34.10
2023-11-24T00:32:40.065Z,36.13
2023-11-24T00:35:08.279Z,40.03
2023-11-24T00:37:37.191Z,32.78
2023-11-24T00:40:09.312Z,37.13
2023-11-24T00:42:38.992Z,37.13
2023-11-24T00:45:08.830Z,37.15
2023-11-24T00:47:36.188Z,38.88
2023-11-24T00:50:05.861Z,34.83
2023-11-24T00:52:33.985Z,32.97
2023-11-24T00:55:02.724Z,37.72
2023-11-24T00:57:33.213Z,36.40
2023-11-24T01:00:05.814Z,33.53
2023-11-24T01:02:34.842Z,32.30
2023-11-24T01:05:06.140Z,34.40
2023-11-24T01:07:38.806Z,32.35
2023-11-24T01:10:09.531Z,33.08
2023-11-24T01:12:37.057Z,33.83
2023-11-24T01:15:06.398Z,32.30
2023-11-24T01:17:34.427Z,33.63
2023-11-24T01:20:03.153Z,35.53
2023-11-24T01:22:32.628Z,35.13
2023-11-24T01:25:01.124Z,37.00
2023-11-24T01:27:31.470Z,41.03
2023-11-24T01:29:59.381Z,37.38
2023-11-24T01:32:28.808Z,34.95
2023-11-24T01:34:56.426Z,36.83
2023-11-24T01:37:26.170Z,34.97
2023-11-24T01:39:54.892Z,34.00
2023-11-24T01:42:22.765Z,35.08
2023-11-24T01:44:50.274Z,30.05
2023-11-24T01:47:19.614Z,29.67
2023-11-24T01:49:47.314Z,30.50
2023-11-24T01:52:15.830Z,30.75
2023-11-24T01:54:43.966Z,32.45
2023-11-24T01:59:59.581Z,29.88
2023-11-24T02:02:31.094Z,32.45
2023-11-24T02:05:03.260Z,33.75
2023-11-24T02:07:38.857Z,31.02
2023-11-24T02:10:16.086Z,29.83
2023-11-24T02:12:56.367Z,29.08
2023-11-24T02:15:32.176Z,29.75
2023-11-24T02:18:01.838Z,29.13
2023-11-24T02:20:36.052Z,33.30
2023-11-24T02:23:06.411Z,33.58
2023-11-24T02:25:37.424Z,32.05
2023-11-24T02:28:06.518Z,31.08
2023-11-24T02:30:40.583Z,31.40
2023-11-24T02:35:49.886Z,29.10
2023-11-24T02:38:21.910Z,28.02
2023-11-24T02:40:53.147Z,29.45
2023-11-24T02:43:24.642Z,28.25
2023-11-24T02:46:05.334Z,26.73
2023-11-24T02:48:45.825Z,28.48
2023-11-24T02:51:24.535Z,30.27
2023-11-24T02:53:54.585Z,27.45
2023-11-24T02:56:22.483Z,26.77
2023-11-24T02:58:57.423Z,26.77
2023-11-24T03:01:35.928Z,20.17
2023-11-24T03:04:05.664Z,26.92
2023-11-24T03:09:27.130Z,29.20
2023-11-24T03:11:59.206Z,23.35
2023-11-24T03:14:28.689Z,29.17
2023-11-24T03:16:59.771Z,30.73
2023-11-24T03:19:29.813Z,28.42
2023-11-24T03:22:00.307Z,27.77
2023-11-24T03:24:29.741Z,27.73
2023-11-24T03:26:59.046Z,27.63
2023-11-24T03:29:27.527Z,26.48
2023-11-24T03:32:00.388Z,26.63
2023-11-24T03:34:30.826Z,26.13
2023-11-24T03:37:01.284Z,26.35
2023-11-24T03:39:30.979Z,26.63
2023-11-24T03:42:01.525Z,26.95
2023-11-24T03:44:29.717Z,27.17
2023-11-24T03:47:01.149Z,28.45
2023-11-24T03:49:29.559Z,25.90
2023-11-24T03:51:59.555Z,26.13
2023-11-24T03:54:31.451Z,27.30
2023-11-24T03:57:17.427Z,27.38
2023-11-24T03:59:51.995Z,27.88
2023-11-24T04:02:31.419Z,27.70
2023-11-24T04:04:58.688Z,29.20
2023-11-24T04:07:28.207Z,30.02
2023-11-24T04:10:05.609Z,28.50
2023-11-24T04:12:33.862Z,28.05
2023-11-24T04:15:06.674Z,29.08
2023-11-24T04:17:40.148Z,29.23
2023-11-24T04:22:56.616Z,30.92
2023-11-24T04:25:26.741Z,29.77
2023-11-24T04:27:56.486Z,29.10
2023-11-24T04:30:28.505Z,30.23
2023-11-24T04:32:58.648Z,29.40
2023-11-24T04:35:28.831Z,27.83
2023-11-24T04:38:00.414Z,29.40
2023-11-24T04:40:29.124Z,29.88
2023-11-24T04:42:58.861Z,31.35
2023-11-24T04:45:30.868Z,30.17
2023-11-24T04:48:05.942Z,30.33
2023-11-24T04:50:34.212Z,29.52
2023-11-24T04:53:02.969Z,30.73
2023-11-24T04:58:19.099Z,29.77
2023-11-24T05:00:52.741Z,30.27
2023-11-24T05:03:23.311Z,28.58
2023-11-24T05:05:56.618Z,29.30
2023-11-24T05:08:34.554Z,28.55
2023-11-24T05:11:12.529Z,30.05
2023-11-24T05:13:44.527Z,34.97
2023-11-24T05:16:20.496Z,30.10
2023-11-24T05:18:56.124Z,31.85
2023-11-24T05:21:27.779Z,28.45
2023-11-24T05:23:57.814Z,28.52
2023-11-24T05:26:28.600Z,29.08
2023-11-24T05:28:59.794Z,27.85
2023-11-24T05:31:31.424Z,28.45
2023-11-24T05:34:01.530Z,29.05
2023-11-24T05:36:31.916Z,28.02
2023-11-24T05:39:01.622Z,28.48
2023-11-24T05:41:37.519Z,30.95
2023-11-24T05:44:07.220Z,32.75
2023-11-24T05:46:35.783Z,28.63
2023-11-24T05:49:05.721Z,29.00
2023-11-24T05:51:34.378Z,27.80
2023-11-24T05:54:07.888Z,30.10
2023-11-24T05:56:38.585Z,35.20
2023-11-24T05:59:08.768Z,31.13
2023-11-24T06:01:40.171Z,27.90
2023-11-24T06:04:11.248Z,28.90
2023-11-24T06:06:40.548Z,28.73
2023-11-24T06:09:11.132Z,30.17
2023-11-24T06:11:38.858Z,30.25
2023-11-24T06:14:06.299Z,31.20
2023-11-24T06:16:33.777Z,28.25
2023-11-24T06:19:02.531Z,28.30
2023-11-24T06:21:31.242Z,27.45
2023-11-24T06:23:59.479Z,26.48
2023-11-24T06:29:12.386Z,25.88
2023-11-24T06:31:43.427Z,28.40
2023-11-24T06:34:13.083Z,27.63
2023-11-24T06:36:47.065Z,28.95
2023-11-24T06:39:22.063Z,32.47
2023-11-24T06:41:51.469Z,31.77
2023-11-24T06:44:20.548Z,30.85
2023-11-24T06:46:50.444Z,29.45
2023-11-24T06:49:21.489Z,30.35
2023-11-24T06:51:53.814Z,30.45
2023-11-24T06:54:23.436Z,29.45
2023-11-24T06:57:02.978Z,32.78
2023-11-24T06:59:32.317Z,35.40
2023-11-24T07:02:03.844Z,33.95
2023-11-24T07:04:34.742Z,33.50
2023-11-24T07:07:10.497Z,33.33
2023-11-24T07:09:45.004Z,32.08
2023-11-24T07:12:19.382Z,31.65
2023-11-24T07:14:51.721Z,36.00
2023-11-24T07:17:22.918Z,27.27
2023-11-24T07:20:00.908Z,33.88
2023-11-24T07:22:31.876Z,31.38
2023-11-24T07:25:00.723Z,32.38
2023-11-24T07:27:32.745Z,32.33
2023-11-24T07:30:00.462Z,31.85
2023-11-24T07:32:31.436Z,34.08
2023-11-24T07:35:08.618Z,34.13
2023-11-24T07:37:47.280Z,33.85
2023-11-24T07:40:17.942Z,34.28
2023-11-24T07:42:48.217Z,35.40
2023-11-24T07:45:17.021Z,36.17
2023-11-24T07:47:49.080Z,35.90
2023-11-24T07:50:19.868Z,36.40
2023-11-24T07:52:51.967Z,35.92
2023-11-24T07:55:20.403Z,34.08
2023-11-24T07:57:49.878Z,34.58
2023-11-24T08:00:19.176Z,32.33
2023-11-24T08:02:56.003Z,33.28
2023-11-24T08:05:32.119Z,34.45
2023-11-24T08:08:08.821Z,35.42
2023-11-24T08:10:44.514Z,35.00
2023-11-24T08:13:17.334Z,36.08
2023-11-24T08:15:47.171Z,34.97
2023-11-24T08:18:23.091Z,37.42
2023-11-24T08:21:11.107Z,37.50
2023-11-24T08:23:40.224Z,36.53
2023-11-24T08:26:23.685Z,32.30
2023-11-24T08:28:56.059Z,31.60
2023-11-24T08:31:45.680Z,31.27
2023-11-24T08:34:17.339Z,30.20
2023-11-24T08:36:47.879Z,30.20
2023-11-24T08:39:38.788Z,31.35
2023-11-24T08:45:15.204Z,31.73
2023-11-24T08:48:18.485Z,34.58
2023-11-24T08:50:49.190Z,32.15
2023-11-24T08:53:26.927Z,34.08
2023-11-24T08:55:59.175Z,35.03
2023-11-24T08:58:31.622Z,35.55
2023-11-24T09:01:01.941Z,36.38
2023-11-24T09:03:35.332Z,37.65
2023-11-24T09:12:02.452Z,36.67
2023-11-24T09:14:46.176Z,35.45
2023-11-24T09:17:24.584Z,34.75
2023-11-24T09:20:07.433Z,40.65
2023-11-24T09:22:36.764Z,36.03
2023-11-24T09:25:10.570Z,29.48
2023-11-24T09:27:48.787Z,37.38
2023-11-24T09:30:18.266Z,35.97
2023-11-24T09:32:54.964Z,37.17
2023-11-24T09:35:28.870Z,69.53
2023-11-24T09:38:01.070Z,46.58
2023-11-24T09:40:32.285Z,34.15
2023-11-24T09:43:05.737Z,35.17
2023-11-24T09:45:34.351Z,34.35
2023-11-24T09:48:05.363Z,35.30
2023-11-24T09:50:37.779Z,36.35
2023-11-24T09:53:07.825Z,34.35
2023-11-24T09:55:36.388Z,37.20
2023-11-24T09:58:05.538Z,36.67
2023-11-24T10:00:35.214Z,37.25
2023-11-24T10:03:08.730Z,37.50
2023-11-24T10:05:37.352Z,35.40
2023-11-24T10:08:04.905Z,34.42
2023-11-24T10:10:32.312Z,36.17
2023-11-24T10:13:04.406Z,36.75
2023-11-24T10:15:33.582Z,35.05
2023-11-24T10:18:01.128Z,35.53
2023-11-24T10:20:31.681Z,39.33
2023-11-24T10:23:01.976Z,39.67
2023-11-24T10:25:35.543Z,39.63
2023-11-24T10:28:08.478Z,35.30
2023-11-24T10:30:39.772Z,36.00
2023-11-24T10:33:07.458Z,36.90
2023-11-24T10:35:34.792Z,35.60
2023-11-24T10:38:03.674Z,35.55
2023-11-24T10:40:33.098Z,36.60
2023-11-24T10:43:19.583Z,35.03
2023-11-24T10:45:52.725Z,34.78
2023-11-24T10:48:47.430Z,33.97
2023-11-24T10:51:31.162Z,40.05
2023-11-24T10:54:05.057Z,41.83
2023-11-24T10:56:36.773Z,41.75
2023-11-24T10:59:07.148Z,40.63
2023-11-24T11:01:35.093Z,43.55
2023-11-24T11:04:03.424Z,43.38
2023-11-24T11:07:03.252Z,41.90
2023-11-24T11:09:44.310Z,39.92
2023-11-24T11:12:32.183Z,41.75
2023-11-24T11:15:00.963Z,43.20
2023-11-24T11:17:33.059Z,50.60
2023-11-24T11:20:17.554Z,50.75
2023-11-24T11:22:48.661Z,56.30
2023-11-24T11:25:29.223Z,50.25
2023-11-24T11:27:57.076Z,48.60
2023-11-24T11:30:28.217Z,48.33
2023-11-24T11:33:11.606Z,51.50
2023-11-24T11:35:42.947Z,50.92
2023-11-24T11:38:15.079Z,52.72
2023-11-24T11:40:52.818Z,51.67
2023-11-24T11:43:20.825Z,50.00
2023-11-24T11:45:53.184Z,49.17
2023-11-24T11:48:24.066Z,47.30
2023-11-24T11:51:01.289Z,42.58
2023-11-24T11:53:32.933Z,50.20
2023-11-24T11:56:15.343Z,52.03
2023-11-24T11:58:42.885Z,51.70
2023-11-24T12:01:10.480Z,55.33
2023-11-24T12:03:40.219Z,53.35
2023-11-24T12:06:08.916Z,56.50
2023-11-24T12:08:40.347Z,54.28
2023-11-24T12:11:08.985Z,57.17
2023-11-24T12:13:40.636Z,58.92
2023-11-24T12:16:09.714Z,58.50
2023-11-24T12:18:37.605Z,59.20
2023-11-24T12:21:05.559Z,53.03
2023-11-24T12:23:33.212Z,54.72
2023-11-24T12:26:01.324Z,50.50
2023-11-24T12:28:28.865Z,50.67
2023-11-24T12:30:59.378Z,54.75
2023-11-24T12:33:26.696Z,53.92
2023-11-24T12:35:58.911Z,52.15
2023-11-24T12:38:29.442Z,58.38
2023-11-24T12:40:58.545Z,56.63
2023-11-24T12:43:26.758Z,58.42
2023-11-24T12:45:54.140Z,54.13
2023-11-24T12:48:26.098Z,54.80
2023-11-24T12:51:00.076Z,53.75
2023-11-24T12:53:28.683Z,53.85
2023-11-24T12:55:56.948Z,53.05
2023-11-24T12:58:24.977Z,54.53
2023-11-24T13:00:55.582Z,49.90
2023-11-24T13:03:24.432Z,51.47
2023-11-24T13:05:59.166Z,51.53
2023-11-24T13:08:31.424Z,47.50
2023-11-24T13:11:03.167Z,50.17
2023-11-24T13:13:31.033Z,52.15
2023-11-24T13:15:58.790Z,51.58
2023-11-24T13:18:27.087Z,52.80
2023-11-24T13:20:54.676Z,50.28
2023-11-24T13:23:22.052Z,50.60
2023-11-24T13:25:50.752Z,53.67
2023-11-24T13:28:18.939Z,53.20
2023-11-24T13:30:46.512Z,54.17
2023-11-24T13:33:17.600Z,56.85
2023-11-24T13:35:49.728Z,52.70
2023-11-24T13:38:21.179Z,52.53
2023-11-24T13:40:49.914Z,53.95
2023-11-24T13:43:17.400Z,53.03
2023-11-24T13:45:45.284Z,55.08
2023-11-24T13:48:13.814Z,56.40
2023-11-24T13:50:41.131Z,64.53
2023-11-24T13:53:08.584Z,60.85
2023-11-24T13:55:45.184Z,59.33
2023-11-24T13:58:13.634Z,61.25
2023-11-24T14:00:40.832Z,59.97
2023-11-24T14:03:08.463Z,62.10
2023-11-24T14:05:35.661Z,63.20
2023-11-24T14:08:04.515Z,63.30
2023-11-24T14:10:31.809Z,60.95
2023-11-24T14:12:59.596Z,67.07
2023-11-24T14:15:28.696Z,65.82
2023-11-24T14:17:57.748Z,66.03
2023-11-24T14:20:26.814Z,68.40
2023-11-24T14:22:54.389Z,64.72
2023-11-24T14:25:25.944Z,65.88
2023-11-24T14:27:55.185Z,71.05
2023-11-24T14:30:22.448Z,67.60
2023-11-24T14:32:49.825Z,64.13
2023-11-24T14:35:17.408Z,64.53
2023-11-24T14:37:45.418Z,64.50
2023-11-24T14:40:20.103Z,64.97
2023-11-24T14:42:51.361Z,64.07
2023-11-24T14:45:19.641Z,63.97
2023-11-24T14:47:50.876Z,62.80
2023-11-24T14:50:26.527Z,65.47
2023-11-24T14:52:59.101Z,62.72
2023-11-24T14:55:30.628Z,61.72
2023-11-24T14:57:58.471Z,62.17
2023-11-24T15:00:35.109Z,64.30
2023-11-24T15:03:09.685Z,85.15
2023-11-24T15:05:43.038Z,75.03
2023-11-24T15:08:16.079Z,65.68
2023-11-24T15:10:46.667Z,68.55
2023-11-24T15:13:22.968Z,70.85
2023-11-24T15:15:51.106Z,68.70
2023-11-24T15:18:21.946Z,66.95
2023-11-24T15:20:54.968Z,68.82
2023-11-24T15:23:28.862Z,68.70
2023-11-24T15:25:57.077Z,69.63
2023-11-24T15:28:27.407Z,81.25
2023-11-24T15:30:55.882Z,73.38
2023-11-24T15:33:24.489Z,70.63
2023-11-24T15:38:40.724Z,73.55
2023-11-24T15:41:11.216Z,73.63
2023-11-24T15:43:38.733Z,79.43
2023-11-24T15:46:09.670Z,78.10
2023-11-24T15:48:39.322Z,74.50
2023-11-24T15:51:06.802Z,74.82
2023-11-24T15:53:34.113Z,72.85
2023-11-24T15:56:02.211Z,72.10
2023-11-24T15:58:30.101Z,71.68
2023-11-24T16:00:58.829Z,71.88
2023-11-24T16:03:28.396Z,72.43
2023-11-24T16:06:01.305Z,75.93
2023-11-24T16:08:34.566Z,75.85
2023-11-24T16:11:11.900Z,75.57
2023-11-24T16:13:42.832Z,78.15
2023-11-24T16:16:10.659Z,74.72
2023-11-24T16:18:43.057Z,75.88
2023-11-24T16:21:11.662Z,79.10
2023-11-24T16:23:39.794Z,76.40
2023-11-24T16:26:08.393Z,74.07
2023-11-24T16:28:38.762Z,70.35
2023-11-24T16:31:07.291Z,73.75
2023-11-24T16:33:36.925Z,82.25
2023-11-24T16:36:07.210Z,87.25
2023-11-24T16:38:38.386Z,86.35
2023-11-24T16:41:09.219Z,81.75
2023-11-24T16:43:37.287Z,80.85
2023-11-24T16:46:08.206Z,81.28
2023-11-24T16:48:40.853Z,79.75
2023-11-24T16:51:10.965Z,81.68
2023-11-24T16:53:39.331Z,81.18
2023-11-24T16:56:09.928Z,71.78
2023-11-24T16:58:38.339Z,70.75
2023-11-24T17:01:07.903Z,63.95
2023-11-24T17:03:39.270Z,61.65
2023-11-24T17:06:12.047Z,49.97
2023-11-24T17:08:42.079Z,37.28
2023-11-24T17:11:14.321Z,41.08
2023-11-24T17:13:45.524Z,59.67
2023-11-24T17:16:15.966Z,63.70
2023-11-24T17:18:44.702Z,59.15
2023-11-24T17:21:13.701Z,55.47
2023-11-24T17:23:42.506Z,58.33
2023-11-24T17:26:14.584Z,57.67
2023-11-24T17:28:47.803Z,55.72
2023-11-24T17:31:16.072Z,54.67
2023-11-24T17:33:44.669Z,57.10
2023-11-24T17:36:12.765Z,58.53
2023-11-24T17:38:43.076Z,60.38
2023-11-24T17:41:20.800Z,59.83
2023-11-24T17:43:55.746Z,57.15
2023-11-24T17:46:24.327Z,61.80
2023-11-24T17:48:53.586Z,63.30
2023-11-24T17:51:26.793Z,63.17
2023-11-24T17:53:57.301Z,58.05
2023-11-24T17:56:25.134Z,58.30
2023-11-24T17:58:53.209Z,58.17
2023-11-24T18:01:22.142Z,53.75
2023-11-24T18:03:49.735Z,55.15
2023-11-24T18:06:33.380Z,54.70
2023-11-24T18:09:03.823Z,53.17
2023-11-24T18:11:34.723Z,47.78
2023-11-24T18:14:04.730Z,49.10
2023-11-24T18:16:33.195Z,47.33
2023-11-24T18:19:02.516Z,43.45
2023-11-24T18:21:30.517Z,41.60
2023-11-24T18:23:58.348Z,36.50
2023-11-24T18:26:29.302Z,36.30
2023-11-24T18:28:56.700Z,33.05
2023-11-24T18:31:24.673Z,29.65
2023-11-24T18:33:52.020Z,27.38
2023-11-24T18:36:19.604Z,24.00
2023-11-24T18:38:48.917Z,19.35
2023-11-24T18:41:20.041Z,19.15
2023-11-24T18:43:48.173Z,18.08
2023-11-24T18:46:20.063Z,17.45
2023-11-24T18:48:56.565Z,17.60
2023-11-24T18:51:24.451Z,16.40
2023-11-24T18:53:53.107Z,18.83
2023-11-24T18:56:26.748Z,18.15
2023-11-24T18:58:54.604Z,17.73
2023-11-24T19:01:22.004Z,16.15
2023-11-24T19:03:51.846Z,12.10
2023-11-24T19:06:19.395Z,10.75
2023-11-24T19:08:47.628Z,9.35
2023-11-24T19:11:21.866Z,8.70
2023-11-24T19:13:50.743Z,7.05
2023-11-24T19:16:18.322Z,6.10
2023-11-24T19:18:46.105Z,6.10
2023-11-24T19:21:14.763Z,6.30
2023-11-24T19:23:42.685Z,6.60
2023-11-24T19:26:13.409Z,6.55
2023-11-24T19:28:58.991Z,6.65
2023-11-24T19:31:33.562Z,6.20
2023-11-24T19:34:03.365Z,6.55
2023-11-24T19:36:31.045Z,8.93
2023-11-24T19:38:58.338Z,7.80
2023-11-24T19:41:25.623Z,8.73
2023-11-24T19:43:54.599Z,7.68
2023-11-24T19:46:25.387Z,45.28
2023-11-24T19:51:36.245Z,10.95
2023-11-24T19:54:06.030Z,9.07
2023-11-24T19:56:33.804Z,9.23
2023-11-24T19:59:05.543Z,8.70
2023-11-24T20:01:35.655Z,7.80
2023-11-24T20:04:04.562Z,8.57
2023-11-24T20:06:33.069Z,7.72
2023-11-24T20:09:07.408Z,8.02
2023-11-24T20:11:34.963Z,7.40
2023-11-24T20:14:04.740Z,6.72
2023-11-24T20:16:32.865Z,7.15
2023-11-24T20:19:02.749Z,7.30
2023-11-24T20:21:34.854Z,7.60
2023-11-24T20:24:03.011Z,15.45
2023-11-24T20:26:31.468Z,31.73
2023-11-24T20:29:02.258Z,16.25
2023-11-24T20:31:31.136Z,15.60
2023-11-24T20:33:59.710Z,17.67
2023-11-24T20:36:29.096Z,16.38
2023-11-24T20:39:00.506Z,11.73
2023-11-24T20:41:31.868Z,11.13
2023-11-24T20:43:59.882Z,8.57
2023-11-24T20:46:33.460Z,8.93
2023-11-24T20:49:04.748Z,8.43
2023-11-24T20:51:38.939Z,8.45
2023-11-24T20:54:10.313Z,9.40
2023-11-24T20:56:37.664Z,11.13
2023-11-24T20:59:12.338Z,10.52
2023-11-24T21:01:43.247Z,10.10
2023-11-24T21:04:13.956Z,10.43
2023-11-24T21:06:41.934Z,9.82
2023-11-24T21:09:12.396Z,10.00
2023-11-24T21:11:41.142Z,10.02
2023-11-24T21:14:09.740Z,8.93
2023-11-24T21:16:41.569Z,9.35
2023-11-24T21:19:15.791Z,10.38
2023-11-24T21:21:46.183Z,10.80
2023-11-24T21:24:17.735Z,11.05
2023-11-24T21:26:45.695Z,11.48
2023-11-24T21:29:13.082Z,11.15
2023-11-24T21:31:41.041Z,14.73
2023-11-24T21:34:10.216Z,15.65
2023-11-24T21:36:42.295Z,17.45
2023-11-24T21:39:13.212Z,19.55
2023-11-24T21:41:42.084Z,25.17
2023-11-24T21:44:09.825Z,20.92
2023-11-24T21:46:37.496Z,13.60
2023-11-24T21:49:06.358Z,11.93
2023-11-24T21:51:34.058Z,12.50
2023-11-24T21:54:05.020Z,12.07
2023-11-24T21:56:37.150Z,11.52
2023-11-24T21:59:05.513Z,13.30
2023-11-24T22:01:35.186Z,14.98
2023-11-24T22:04:05.581Z,12.75
2023-11-24T22:06:39.311Z,11.00
2023-11-24T22:09:09.276Z,10.70
2023-11-24T22:11:37.235Z,11.35
2023-11-24T22:14:09.785Z,11.05
2023-11-24T22:16:37.529Z,10.25
2023-11-24T22:19:07.702Z,10.63
2023-11-24T22:21:35.477Z,11.48
2023-11-24T22:24:09.809Z,13.57
2023-11-24T22:26:39.409Z,14.13
2023-11-24T22:29:07.132Z,13.02
2023-11-24T22:31:34.526Z,12.52
2023-11-24T22:34:03.190Z,13.82
2023-11-24T22:36:31.976Z,13.88
2023-11-24T22:38:59.214Z,14.07
2023-11-24T22:41:28.176Z,12.70
2023-11-24T22:43:56.686Z,12.50
2023-11-24T22:46:28.340Z,11.38
2023-11-24T22:48:58.649Z,12.77
2023-11-24T22:51:28.133Z,12.80
2023-11-24T22:53:58.691Z,10.95
2023-11-24T22:56:29.251Z,11.20
2023-11-24T22:58:59.727Z,10.98
2023-11-24T23:01:29.671Z,11.63
2023-11-24T23:03:59.101Z,12.27
2023-11-24T23:06:29.802Z,11.07
2023-11-24T23:09:00.554Z,11.68
2023-11-24T23:11:33.202Z,11.32
2023-11-24T23:14:04.845Z,12.57
2023-11-24T23:16:36.555Z,12.55
2023-11-24T23:19:07.943Z,11.70
2023-11-24T23:21:37.812Z,11.63
2023-11-24T23:24:05.844Z,11.35
2023-11-24T23:26:34.238Z,11.70
2023-11-24T23:29:04.881Z,11.43
2023-11-24T23:31:33.983Z,12.88
2023-11-24T23:34:07.195Z,13.43
2023-11-24T23:36:37.545Z,14.13
2023-11-24T23:39:05.706Z,15.30
2023-11-24T23:41:33.480Z,13.07
2023-11-24T23:44:01.798Z,13.90
2023-11-24T23:46:31.074Z,14.55
2023-11-24T23:49:02.538Z,14.50
2023-11-24T23:51:40.165Z,13.02
2023-11-24T23:54:08.748Z,14.00
2023-11-24T23:56:43.370Z,13.75
2023-11-24T23:59:13.950Z,13.27
